createdAt,value
2018-09-20T00:03:14.139Z,101304.00
2018-09-20T00:08:07.853Z,101297.00
2018-09-20T00:13:01.061Z,101291.00
2018-09-20T00:17:54.625Z,101287.00
2018-09-20T00:22:47.903Z,101279.00
2018-09-20T00:27:41.455Z,101274.00
2018-09-20T00:32:34.720Z,101269.00
2018-09-20T00:37:28.000Z,101273.00
2018-09-20T00:42:21.234Z,101276.00
2018-09-20T00:47:14.481Z,101272.00
2018-09-20T00:52:07.739Z,101270.00
2018-09-20T00:57:01.265Z,101263.00
2018-09-20T01:01:54.487Z,101267.00
2018-09-20T01:06:47.709Z,101266.00
2018-09-20T01:11:41.751Z,101269.00
2018-09-20T01:16:35.389Z,101268.00
2018-09-20T01:21:28.683Z,101271.00
2018-09-20T01:26:21.901Z,101269.00
2018-09-20T01:31:15.159Z,101270.00
2018-09-20T01:36:08.409Z,101270.00
2018-09-20T01:41:02.487Z,101266.00
2018-09-20T01:45:55.729Z,101271.00
2018-09-20T01:50:49.001Z,101270.00
2018-09-20T01:55:42.244Z,101271.00
2018-09-20T02:00:35.515Z,101271.00
2018-09-20T02:05:28.755Z,101280.00
2018-09-20T02:10:21.996Z,101274.00
2018-09-20T02:15:15.243Z,101275.00
2018-09-20T02:20:08.512Z,101285.00
2018-09-20T02:25:01.748Z,101286.00
2018-09-20T02:29:55.101Z,101294.00
2018-09-20T02:34:48.310Z,101296.00
2018-09-20T02:39:41.540Z,101285.00
2018-09-20T02:44:34.797Z,101287.00
2018-09-20T02:49:28.365Z,101288.00
2018-09-20T02:54:21.628Z,101299.00
2018-09-20T02:59:14.898Z,101291.00
2018-09-20T03:04:08.229Z,101288.00
2018-09-20T03:09:01.489Z,101286.00
2018-09-20T03:13:54.753Z,101286.00
2018-09-20T03:18:49.049Z,101285.00
2018-09-20T03:23:42.297Z,101282.00
2018-09-20T03:28:35.533Z,101280.00
2018-09-20T03:33:28.796Z,101279.00
2018-09-20T03:38:22.055Z,101275.00
2018-09-20T03:43:15.271Z,101277.00
2018-09-20T03:48:08.561Z,101277.00
2018-09-20T03:53:02.413Z,101279.00
2018-09-20T03:57:56.193Z,101272.00
2018-09-20T04:02:49.488Z,101273.00
2018-09-20T04:07:42.763Z,101278.00
2018-09-20T04:12:36.023Z,101277.00
2018-09-20T04:17:29.235Z,101278.00
2018-09-20T04:22:22.511Z,101278.00
2018-09-20T04:27:15.747Z,101278.00
2018-09-20T04:32:09.060Z,101284.00
2018-09-20T04:37:02.437Z,101288.00
2018-09-20T04:41:55.685Z,101288.00
2018-09-20T04:46:48.961Z,101283.00
2018-09-20T04:51:42.222Z,101287.00
2018-09-20T04:56:35.479Z,101288.00
2018-09-20T05:01:28.743Z,101288.00
2018-09-20T05:06:22.558Z,101297.00
2018-09-20T05:11:16.822Z,101295.00
2018-09-20T05:16:10.137Z,101293.00
2018-09-20T05:21:03.444Z,101290.00
2018-09-20T05:25:56.721Z,101294.00
2018-09-20T05:30:49.929Z,101292.00
2018-09-20T05:35:43.203Z,101284.00
2018-09-20T05:40:36.483Z,101279.00
2018-09-20T05:45:29.712Z,101280.00
2018-09-20T05:50:22.947Z,101276.00
2018-09-20T05:55:16.242Z,101272.00
2018-09-20T06:00:09.951Z,101272.00
2018-09-20T06:05:03.415Z,101276.00
2018-09-20T06:09:56.640Z,101283.00
2018-09-20T06:14:50.053Z,101291.00
2018-09-20T06:19:43.342Z,101288.00
2018-09-20T06:24:36.583Z,101296.00
2018-09-20T06:29:29.825Z,101296.00
2018-09-20T06:34:23.061Z,101298.00
2018-09-20T06:39:16.315Z,101294.00
2018-09-20T06:44:09.565Z,101291.00
2018-09-20T06:49:02.915Z,101298.00
2018-09-20T06:53:56.196Z,101291.00
2018-09-20T06:58:49.454Z,101286.00
2018-09-20T07:03:42.734Z,101292.00
2018-09-20T07:08:35.993Z,101288.00
2018-09-20T07:13:29.242Z,101280.00
2018-09-20T07:18:22.497Z,101259.00
2018-09-20T07:23:15.778Z,101262.00
2018-09-20T07:28:09.665Z,101251.00
2018-09-20T07:33:02.901Z,101254.00
2018-09-20T07:37:56.161Z,101251.00
2018-09-20T07:42:49.996Z,101266.00
2018-09-20T07:47:43.322Z,101267.00
2018-09-20T07:52:36.556Z,101267.00
2018-09-20T07:57:30.375Z,101260.00
2018-09-20T08:02:23.732Z,101262.00
2018-09-20T08:07:17.108Z,101263.00
2018-09-20T08:12:10.357Z,101270.00
2018-09-20T08:17:03.775Z,101275.00
2018-09-20T08:21:57.013Z,101275.00
2018-09-20T08:26:50.431Z,101261.00
2018-09-20T08:31:44.290Z,101259.00
2018-09-20T08:36:37.597Z,101264.00
2018-09-20T08:41:31.016Z,101256.00
2018-09-20T08:46:24.289Z,101254.00
2018-09-20T08:51:17.545Z,101249.00
2018-09-20T08:56:10.842Z,101254.00
2018-09-20T09:01:04.593Z,101241.00
2018-09-20T09:05:58.379Z,101254.00
2018-09-20T09:10:51.691Z,101247.00
2018-09-20T09:15:44.940Z,101242.00
2018-09-20T09:20:38.202Z,101239.00
2018-09-20T09:25:31.528Z,101240.00
2018-09-20T09:30:25.121Z,101233.00
2018-09-20T09:35:18.392Z,101220.00
2018-09-20T09:40:11.633Z,101214.00
2018-09-20T09:45:05.115Z,101205.00
2018-09-20T09:49:58.351Z,101203.00
2018-09-20T09:54:51.732Z,101200.00
2018-09-20T09:59:44.960Z,101205.00
2018-09-20T10:04:38.203Z,101199.00
2018-09-20T10:09:31.489Z,101198.00
2018-09-20T10:14:25.231Z,101195.00
2018-09-20T10:19:18.504Z,101183.00
2018-09-20T10:24:11.718Z,101180.00
2018-09-20T10:29:05.106Z,101168.00
2018-09-20T10:33:58.448Z,101172.00
2018-09-20T10:38:53.159Z,101170.00
2018-09-20T10:43:48.187Z,101166.00
2018-09-20T10:48:41.416Z,101154.00
2018-09-20T10:53:34.746Z,101146.00
2018-09-20T10:58:28.065Z,101141.00
2018-09-20T11:03:21.392Z,101141.00
2018-09-20T11:08:14.597Z,101129.00
2018-09-20T11:13:07.848Z,101134.00
2018-09-20T11:18:01.093Z,101118.00
2018-09-20T11:22:54.433Z,101113.00
2018-09-20T11:27:47.715Z,101111.00
2018-09-20T11:32:41.004Z,101106.00
2018-09-20T11:37:34.266Z,101096.00
2018-09-20T11:42:27.576Z,101097.00
2018-09-20T11:47:20.838Z,101096.00
2018-09-20T11:52:14.039Z,101086.00
2018-09-20T11:57:07.318Z,101086.00
2018-09-20T12:02:00.700Z,101083.00
2018-09-20T12:06:54.062Z,101079.00
2018-09-20T12:11:47.316Z,101082.00
2018-09-20T12:16:40.655Z,101073.00
2018-09-20T12:21:34.055Z,101065.00
2018-09-20T12:26:27.353Z,101060.00
2018-09-20T12:31:20.733Z,101054.00
2018-09-20T12:36:14.031Z,101040.00
2018-09-20T12:41:08.380Z,101037.00
2018-09-20T12:46:02.405Z,101031.00
2018-09-20T12:50:55.669Z,101029.00
2018-09-20T12:55:49.202Z,101016.00
2018-09-20T13:00:42.816Z,101013.00
2018-09-20T13:05:37.033Z,101012.00
2018-09-20T13:10:30.999Z,101003.00
2018-09-20T13:15:24.274Z,100993.00
2018-09-20T13:20:17.605Z,100983.00
2018-09-20T13:25:10.873Z,100974.00
2018-09-20T13:30:04.212Z,100969.00
2018-09-20T13:34:57.453Z,100977.00
2018-09-20T13:39:50.749Z,100963.00
2018-09-20T13:44:44.148Z,100961.00
2018-09-20T13:49:37.455Z,100957.00
2018-09-20T13:54:30.753Z,100942.00
2018-09-20T13:59:23.982Z,100939.00
2018-09-20T14:04:17.221Z,100933.00
2018-09-20T14:09:11.715Z,100931.00
2018-09-20T14:14:05.137Z,100916.00
2018-09-20T14:18:59.135Z,100918.00
2018-09-20T14:23:53.217Z,100908.00
2018-09-20T14:28:47.100Z,100904.00
2018-09-20T14:33:40.319Z,100892.00
2018-09-20T14:38:33.567Z,100879.00
2018-09-20T14:43:26.874Z,100872.00
2018-09-20T14:48:20.117Z,100863.00
2018-09-20T14:53:13.728Z,100858.00
2018-09-20T14:58:07.980Z,100857.00
2018-09-20T15:03:01.224Z,100853.00
2018-09-20T15:07:54.440Z,100841.00
2018-09-20T15:12:47.703Z,100841.00
2018-09-20T15:17:40.972Z,100833.00
2018-09-20T15:22:34.314Z,100829.00
2018-09-20T15:27:27.564Z,100825.00
2018-09-20T15:32:20.898Z,100820.00
2018-09-20T15:37:14.667Z,100809.00
2018-09-20T15:42:08.058Z,100806.00
2018-09-20T15:47:01.439Z,100796.00
2018-09-20T15:51:54.964Z,100790.00
2018-09-20T15:56:48.396Z,100784.00
2018-09-20T16:01:41.665Z,100789.00
2018-09-20T16:06:35.109Z,100794.00
2018-09-20T16:11:28.747Z,100786.00
2018-09-20T16:16:22.106Z,100784.00
2018-09-20T16:21:15.391Z,100778.00
2018-09-20T16:26:08.693Z,100771.00
2018-09-20T16:31:35.985Z,100765.00
2018-09-20T16:36:52.177Z,100757.00
2018-09-20T16:41:49.939Z,100748.00
2018-09-20T16:47:17.093Z,100740.00
2018-09-20T16:52:10.461Z,100741.00
2018-09-20T16:57:03.754Z,100740.00
2018-09-20T17:01:56.963Z,100738.00
2018-09-20T17:06:50.786Z,100736.00
2018-09-20T17:11:44.374Z,100735.00
2018-09-20T17:16:37.674Z,100735.00
2018-09-20T17:21:30.900Z,100732.00
2018-09-20T17:26:24.172Z,100739.00
2018-09-20T17:31:17.467Z,100736.00
2018-09-20T17:36:11.209Z,100735.00
2018-09-20T17:41:07.782Z,100735.00
2018-09-20T17:46:01.117Z,100737.00
2018-09-20T17:50:55.428Z,100733.00
2018-09-20T17:55:49.660Z,100731.00
2018-09-20T18:00:43.015Z,100732.00
2018-09-20T18:05:36.364Z,100729.00
2018-09-20T18:10:29.708Z,100730.00
2018-09-20T18:15:22.988Z,100726.00
2018-09-20T18:20:16.279Z,100725.00
2018-09-20T18:25:09.555Z,100725.00
2018-09-20T18:30:02.853Z,100727.00
2018-09-20T18:34:56.084Z,100718.00
2018-09-20T18:39:49.433Z,100705.00
2018-09-20T18:44:42.760Z,100706.00
2018-09-20T18:49:36.005Z,100696.00
2018-09-20T18:54:29.291Z,100696.00
2018-09-20T18:59:22.573Z,100693.00
2018-09-20T19:04:16.505Z,100698.00
2018-09-20T19:09:10.227Z,100704.00
2018-09-20T19:14:03.501Z,100702.00
2018-09-20T19:18:56.793Z,100694.00
2018-09-20T19:23:50.061Z,100684.00
2018-09-20T19:28:43.324Z,100677.00
2018-09-20T19:33:36.560Z,100675.00
2018-09-20T19:38:29.950Z,100663.00
2018-09-20T19:43:23.249Z,100668.00
2018-09-20T19:48:16.789Z,100661.00
2018-09-20T19:53:10.113Z,100661.00
2018-09-20T19:58:03.347Z,100665.00
2018-09-20T20:02:56.691Z,100662.00
2018-09-20T20:07:50.986Z,100650.00
2018-09-20T20:12:44.229Z,100647.00
2018-09-20T20:17:37.479Z,100646.00
2018-09-20T20:22:30.819Z,100644.00
2018-09-20T20:27:24.183Z,100635.00
2018-09-20T20:32:18.371Z,100632.00
2018-09-20T20:37:12.207Z,100627.00
2018-09-20T20:42:06.985Z,100620.00
2018-09-20T20:47:00.897Z,100619.00
2018-09-20T20:51:54.162Z,100619.00
2018-09-20T20:56:47.506Z,100621.00
2018-09-20T21:01:40.834Z,100606.00
2018-09-20T21:06:41.749Z,100600.00
2018-09-20T21:11:35.461Z,100598.00
2018-09-20T21:16:28.738Z,100591.00
2018-09-20T21:21:22.032Z,100587.00
2018-09-20T21:26:15.326Z,100523.00
2018-09-20T21:31:08.619Z,100576.00
2018-09-20T21:36:01.872Z,100573.00
2018-09-20T21:40:55.141Z,100559.00
2018-09-20T21:45:48.717Z,100554.00
2018-09-20T21:50:41.957Z,100554.00
2018-09-20T21:55:35.235Z,100549.00
2018-09-20T22:00:28.553Z,100541.00
2018-09-20T22:05:21.803Z,100533.00
2018-09-20T22:10:15.023Z,100530.00
2018-09-20T22:15:13.739Z,100520.00
2018-09-20T22:20:07.142Z,100515.00
2018-09-20T22:25:00.413Z,100511.00
2018-09-20T22:29:53.710Z,100499.00
2018-09-20T22:34:46.943Z,100490.00
2018-09-20T22:39:40.210Z,100487.00
2018-09-20T22:44:33.441Z,100475.00
2018-09-20T22:49:26.692Z,100476.00
2018-09-20T22:54:19.927Z,100464.00
2018-09-20T22:59:13.218Z,100455.00
2018-09-20T23:04:06.577Z,100445.00
2018-09-20T23:08:59.805Z,100445.00
2018-09-20T23:13:53.053Z,100446.00
2018-09-20T23:18:46.295Z,100448.00
2018-09-20T23:23:39.529Z,100438.00
2018-09-20T23:28:33.377Z,100432.00
2018-09-20T23:33:26.669Z,100422.00
2018-09-20T23:38:19.911Z,100421.00
2018-09-20T23:43:13.221Z,100415.00
2018-09-20T23:48:07.261Z,100412.00
2018-09-20T23:53:00.571Z,100415.00
2018-09-20T23:57:53.833Z,100407.00
